sensor_id;sensor_type;location;lat;lon;timestamp;P1;durP1;ratioP1;P2;durP2;ratioP2
5129;SDS011;2583;50.946;6.954;2022-12-18T00:00:48;18.07;;;11.00;;
5129;SDS011;2583;50.946;6.954;2022-12-18T00:03:15;16.23;;;9.73;;
5129;SDS011;2583;50.946;6.954;2022-12-18T00:05:51;17.17;;;10.50;;
5129;SDS011;2583;50.946;6.954;2022-12-18T00:08:19;17.23;;;9.43;;
5129;SDS011;2583;50.946;6.954;2022-12-18T00:10:46;15.40;;;11.03;;
5129;SDS011;2583;50.946;6.954;2022-12-18T00:13:12;12.20;;;9.90;;
5129;SDS011;2583;50.946;6.954;2022-12-18T00:15:39;14.83;;;10.20;;
5129;SDS011;2583;50.946;6.954;2022-12-18T00:18:06;14.60;;;8.70;;
5129;SDS011;2583;50.946;6.954;2022-12-18T00:20:39;19.23;;;10.00;;
5129;SDS011;2583;50.946;6.954;2022-12-18T00:23:07;13.80;;;9.90;;
5129;SDS011;2583;50.946;6.954;2022-12-18T00:25:34;14.77;;;8.97;;
5129;SDS011;2583;50.946;6.954;2022-12-18T00:28:02;16.93;;;11.07;;
5129;SDS011;2583;50.946;6.954;2022-12-18T00:30:29;16.40;;;10.27;;
5129;SDS011;2583;50.946;6.954;2022-12-18T00:32:57;19.60;;;10.90;;
5129;SDS011;2583;50.946;6.954;2022-12-18T00:35:24;19.07;;;12.00;;
5129;SDS011;2583;50.946;6.954;2022-12-18T00:37:51;20.83;;;10.83;;
5129;SDS011;2583;50.946;6.954;2022-12-18T00:40:17;15.07;;;11.07;;
5129;SDS011;2583;50.946;6.954;2022-12-18T00:42:44;13.80;;;9.80;;
5129;SDS011;2583;50.946;6.954;2022-12-18T00:45:27;13.43;;;9.83;;
5129;SDS011;2583;50.946;6.954;2022-12-18T00:47:56;19.83;;;11.10;;
5129;SDS011;2583;50.946;6.954;2022-12-18T00:50:24;19.20;;;11.87;;
5129;SDS011;2583;50.946;6.954;2022-12-18T00:52:51;14.23;;;10.40;;
5129;SDS011;2583;50.946;6.954;2022-12-18T00:55:18;16.90;;;10.60;;
5129;SDS011;2583;50.946;6.954;2022-12-18T00:57:45;15.83;;;9.57;;
5129;SDS011;2583;50.946;6.954;2022-12-18T01:00:13;15.57;;;9.90;;
5129;SDS011;2583;50.946;6.954;2022-12-18T01:02:41;16.67;;;10.53;;
5129;SDS011;2583;50.946;6.954;2022-12-18T01:05:09;14.30;;;10.27;;
5129;SDS011;2583;50.946;6.954;2022-12-18T01:07:37;13.10;;;9.90;;
5129;SDS011;2583;50.946;6.954;2022-12-18T01:10:05;14.37;;;10.03;;
5129;SDS011;2583;50.946;6.954;2022-12-18T01:12:33;21.30;;;10.40;;
5129;SDS011;2583;50.946;6.954;2022-12-18T01:14:59;15.93;;;10.20;;
5129;SDS011;2583;50.946;6.954;2022-12-18T01:17:26;16.70;;;9.87;;
5129;SDS011;2583;50.946;6.954;2022-12-18T01:19:53;15.80;;;9.70;;
5129;SDS011;2583;50.946;6.954;2022-12-18T01:22:20;15.90;;;10.43;;
5129;SDS011;2583;50.946;6.954;2022-12-18T01:24:47;16.27;;;10.60;;
5129;SDS011;2583;50.946;6.954;2022-12-18T01:27:14;16.10;;;9.03;;
5129;SDS011;2583;50.946;6.954;2022-12-18T01:29:40;17.80;;;10.23;;
5129;SDS011;2583;50.946;6.954;2022-12-18T01:32:08;17.00;;;11.20;;
5129;SDS011;2583;50.946;6.954;2022-12-18T01:34:36;18.13;;;10.93;;
5129;SDS011;2583;50.946;6.954;2022-12-18T01:37:04;17.20;;;10.70;;
5129;SDS011;2583;50.946;6.954;2022-12-18T01:39:31;15.50;;;9.70;;
5129;SDS011;2583;50.946;6.954;2022-12-18T01:42:05;16.43;;;11.03;;
5129;SDS011;2583;50.946;6.954;2022-12-18T01:50:16;19.43;;;10.30;;
5129;SDS011;2583;50.946;6.954;2022-12-18T01:52:48;17.60;;;10.63;;
5129;SDS011;2583;50.946;6.954;2022-12-18T01:55:25;12.87;;;9.50;;
5129;SDS011;2583;50.946;6.954;2022-12-18T01:57:55;15.97;;;10.40;;
5129;SDS011;2583;50.946;6.954;2022-12-18T02:00:25;11.67;;;9.13;;
5129;SDS011;2583;50.946;6.954;2022-12-18T02:02:52;16.73;;;10.80;;
5129;SDS011;2583;50.946;6.954;2022-12-18T02:05:29;16.60;;;10.50;;
5129;SDS011;2583;50.946;6.954;2022-12-18T02:08:33;15.30;;;10.27;;
5129;SDS011;2583;50.946;6.954;2022-12-18T02:16:36;18.30;;;11.30;;
5129;SDS011;2583;50.946;6.954;2022-12-18T02:19:24;14.23;;;10.50;;
5129;SDS011;2583;50.946;6.954;2022-12-18T02:22:12;13.53;;;9.33;;
5129;SDS011;2583;50.946;6.954;2022-12-18T02:25:00;14.90;;;10.50;;
5129;SDS011;2583;50.946;6.954;2022-12-18T02:27:29;21.53;;;10.80;;
5129;SDS011;2583;50.946;6.954;2022-12-18T02:29:58;18.90;;;10.57;;
5129;SDS011;2583;50.946;6.954;2022-12-18T02:32:28;17.33;;;10.20;;
5129;SDS011;2583;50.946;6.954;2022-12-18T02:35:09;14.33;;;9.77;;
5129;SDS011;2583;50.946;6.954;2022-12-18T02:37:40;14.50;;;10.60;;
5129;SDS011;2583;50.946;6.954;2022-12-18T02:40:09;12.63;;;9.77;;
5129;SDS011;2583;50.946;6.954;2022-12-18T02:42:38;16.30;;;9.97;;
5129;SDS011;2583;50.946;6.954;2022-12-18T02:45:05;14.40;;;9.90;;
5129;SDS011;2583;50.946;6.954;2022-12-18T02:47:32;15.77;;;9.30;;
5129;SDS011;2583;50.946;6.954;2022-12-18T02:50:08;14.30;;;9.20;;
5129;SDS011;2583;50.946;6.954;2022-12-18T03:01:58;15.13;;;8.00;;
5129;SDS011;2583;50.946;6.954;2022-12-18T03:04:36;15.13;;;10.40;;
5129;SDS011;2583;50.946;6.954;2022-12-18T03:07:11;18.37;;;10.40;;
5129;SDS011;2583;50.946;6.954;2022-12-18T03:09:46;17.67;;;10.27;;
5129;SDS011;2583;50.946;6.954;2022-12-18T03:12:18;14.37;;;9.67;;
5129;SDS011;2583;50.946;6.954;2022-12-18T03:15:11;14.50;;;10.37;;
5129;SDS011;2583;50.946;6.954;2022-12-18T03:17:56;14.80;;;9.20;;
5129;SDS011;2583;50.946;6.954;2022-12-18T03:20:34;18.97;;;10.20;;
5129;SDS011;2583;50.946;6.954;2022-12-18T03:23:09;17.63;;;9.43;;
5129;SDS011;2583;50.946;6.954;2022-12-18T03:25:51;15.00;;;9.10;;
5129;SDS011;2583;50.946;6.954;2022-12-18T03:28:22;11.20;;;9.40;;
5129;SDS011;2583;50.946;6.954;2022-12-18T03:30:51;14.23;;;9.50;;
5129;SDS011;2583;50.946;6.954;2022-12-18T03:33:24;12.80;;;9.20;;
5129;SDS011;2583;50.946;6.954;2022-12-18T03:35:55;11.70;;;8.70;;
5129;SDS011;2583;50.946;6.954;2022-12-18T03:38:22;15.67;;;9.43;;
5129;SDS011;2583;50.946;6.954;2022-12-18T03:49:07;12.73;;;8.50;;
5129;SDS011;2583;50.946;6.954;2022-12-18T03:54:07;11.60;;;8.10;;
5129;SDS011;2583;50.946;6.954;2022-12-18T03:56:38;12.50;;;9.17;;
5129;SDS011;2583;50.946;6.954;2022-12-18T03:59:08;10.73;;;8.90;;
5129;SDS011;2583;50.946;6.954;2022-12-18T04:01:38;12.97;;;9.80;;
5129;SDS011;2583;50.946;6.954;2022-12-18T04:04:09;12.93;;;8.83;;
5129;SDS011;2583;50.946;6.954;2022-12-18T04:06:37;14.67;;;10.23;;
5129;SDS011;2583;50.946;6.954;2022-12-18T04:09:04;16.57;;;9.37;;
5129;SDS011;2583;50.946;6.954;2022-12-18T04:11:31;15.40;;;8.83;;
5129;SDS011;2583;50.946;6.954;2022-12-18T04:13:58;17.90;;;10.87;;
5129;SDS011;2583;50.946;6.954;2022-12-18T04:16:31;13.33;;;9.73;;
5129;SDS011;2583;50.946;6.954;2022-12-18T04:18:57;13.07;;;9.73;;
5129;SDS011;2583;50.946;6.954;2022-12-18T04:21:25;14.13;;;10.40;;
5129;SDS011;2583;50.946;6.954;2022-12-18T04:23:52;14.90;;;10.40;;
5129;SDS011;2583;50.946;6.954;2022-12-18T04:26:19;12.67;;;10.47;;
5129;SDS011;2583;50.946;6.954;2022-12-18T04:28:46;17.40;;;10.60;;
5129;SDS011;2583;50.946;6.954;2022-12-18T04:31:13;17.60;;;11.40;;
5129;SDS011;2583;50.946;6.954;2022-12-18T04:33:40;18.33;;;9.90;;
5129;SDS011;2583;50.946;6.954;2022-12-18T04:36:07;17.60;;;10.40;;
5129;SDS011;2583;50.946;6.954;2022-12-18T04:38:34;15.47;;;10.83;;
5129;SDS011;2583;50.946;6.954;2022-12-18T04:41:01;18.70;;;10.77;;
5129;SDS011;2583;50.946;6.954;2022-12-18T04:43:28;18.90;;;12.20;;
5129;SDS011;2583;50.946;6.954;2022-12-18T04:46:00;16.20;;;11.83;;
5129;SDS011;2583;50.946;6.954;2022-12-18T04:48:31;17.23;;;10.57;;
5129;SDS011;2583;50.946;6.954;2022-12-18T04:50:58;17.37;;;10.50;;
5129;SDS011;2583;50.946;6.954;2022-12-18T04:53:25;20.40;;;12.40;;
5129;SDS011;2583;50.946;6.954;2022-12-18T04:56:09;17.17;;;11.43;;
5129;SDS011;2583;50.946;6.954;2022-12-18T04:58:37;16.67;;;10.73;;
5129;SDS011;2583;50.946;6.954;2022-12-18T05:01:05;19.73;;;11.50;;
5129;SDS011;2583;50.946;6.954;2022-12-18T05:03:34;15.83;;;11.23;;
5129;SDS011;2583;50.946;6.954;2022-12-18T05:06:02;17.70;;;10.67;;
5129;SDS011;2583;50.946;6.954;2022-12-18T05:08:29;16.03;;;11.13;;
5129;SDS011;2583;50.946;6.954;2022-12-18T05:13:26;18.37;;;11.00;;
5129;SDS011;2583;50.946;6.954;2022-12-18T05:15:54;15.60;;;10.93;;
5129;SDS011;2583;50.946;6.954;2022-12-18T05:18:21;14.63;;;10.70;;
5129;SDS011;2583;50.946;6.954;2022-12-18T05:20:52;15.67;;;9.80;;
5129;SDS011;2583;50.946;6.954;2022-12-18T05:23:20;17.30;;;11.53;;
5129;SDS011;2583;50.946;6.954;2022-12-18T05:26:02;17.90;;;10.30;;
5129;SDS011;2583;50.946;6.954;2022-12-18T05:28:31;16.50;;;10.30;;
5129;SDS011;2583;50.946;6.954;2022-12-18T05:31:00;14.90;;;10.07;;
5129;SDS011;2583;50.946;6.954;2022-12-18T05:33:29;19.83;;;11.17;;
5129;SDS011;2583;50.946;6.954;2022-12-18T05:35:59;18.00;;;11.20;;
5129;SDS011;2583;50.946;6.954;2022-12-18T05:38:27;16.20;;;10.00;;
5129;SDS011;2583;50.946;6.954;2022-12-18T05:40:56;17.20;;;10.83;;
5129;SDS011;2583;50.946;6.954;2022-12-18T05:43:23;17.03;;;10.70;;
5129;SDS011;2583;50.946;6.954;2022-12-18T05:45:51;16.40;;;10.90;;
5129;SDS011;2583;50.946;6.954;2022-12-18T05:48:19;16.87;;;10.10;;
5129;SDS011;2583;50.946;6.954;2022-12-18T05:50:47;17.37;;;10.73;;
5129;SDS011;2583;50.946;6.954;2022-12-18T05:53:16;16.13;;;11.10;;
5129;SDS011;2583;50.946;6.954;2022-12-18T05:55:44;18.10;;;11.13;;
5129;SDS011;2583;50.946;6.954;2022-12-18T05:58:11;18.40;;;11.00;;
5129;SDS011;2583;50.946;6.954;2022-12-18T06:00:40;18.40;;;10.70;;
5129;SDS011;2583;50.946;6.954;2022-12-18T06:03:08;16.60;;;10.67;;
5129;SDS011;2583;50.946;6.954;2022-12-18T06:05:37;14.23;;;10.87;;
5129;SDS011;2583;50.946;6.954;2022-12-18T06:08:05;18.17;;;11.50;;
5129;SDS011;2583;50.946;6.954;2022-12-18T06:10:32;19.60;;;11.17;;
5129;SDS011;2583;50.946;6.954;2022-12-18T06:12:59;17.60;;;11.60;;
5129;SDS011;2583;50.946;6.954;2022-12-18T06:15:26;16.30;;;12.00;;
5129;SDS011;2583;50.946;6.954;2022-12-18T06:17:53;21.53;;;12.27;;
5129;SDS011;2583;50.946;6.954;2022-12-18T06:20:20;18.03;;;12.13;;
5129;SDS011;2583;50.946;6.954;2022-12-18T06:22:47;19.77;;;12.00;;
5129;SDS011;2583;50.946;6.954;2022-12-18T06:25:14;21.50;;;12.23;;
5129;SDS011;2583;50.946;6.954;2022-12-18T06:27:41;26.50;;;12.20;;
5129;SDS011;2583;50.946;6.954;2022-12-18T06:30:09;21.40;;;12.10;;
5129;SDS011;2583;50.946;6.954;2022-12-18T06:32:36;17.87;;;11.90;;
5129;SDS011;2583;50.946;6.954;2022-12-18T06:35:03;19.73;;;12.03;;
5129;SDS011;2583;50.946;6.954;2022-12-18T06:37:30;18.83;;;11.50;;
5129;SDS011;2583;50.946;6.954;2022-12-18T06:39:57;17.60;;;11.27;;
5129;SDS011;2583;50.946;6.954;2022-12-18T06:42:24;18.23;;;11.47;;
5129;SDS011;2583;50.946;6.954;2022-12-18T06:44:51;18.40;;;12.63;;
5129;SDS011;2583;50.946;6.954;2022-12-18T06:47:18;18.70;;;11.60;;
5129;SDS011;2583;50.946;6.954;2022-12-18T06:49:45;18.73;;;12.13;;
5129;SDS011;2583;50.946;6.954;2022-12-18T06:52:12;20.33;;;12.73;;
5129;SDS011;2583;50.946;6.954;2022-12-18T06:54:38;17.40;;;11.57;;
5129;SDS011;2583;50.946;6.954;2022-12-18T06:57:05;15.43;;;10.87;;
5129;SDS011;2583;50.946;6.954;2022-12-18T06:59:32;17.93;;;12.00;;
5129;SDS011;2583;50.946;6.954;2022-12-18T07:01:59;18.03;;;11.47;;
5129;SDS011;2583;50.946;6.954;2022-12-18T07:04:29;17.20;;;12.03;;
5129;SDS011;2583;50.946;6.954;2022-12-18T07:06:56;15.97;;;11.27;;
5129;SDS011;2583;50.946;6.954;2022-12-18T07:09:23;16.93;;;11.30;;
5129;SDS011;2583;50.946;6.954;2022-12-18T07:11:51;16.53;;;11.70;;
5129;SDS011;2583;50.946;6.954;2022-12-18T07:14:18;19.77;;;11.50;;
5129;SDS011;2583;50.946;6.954;2022-12-18T07:16:45;23.77;;;12.90;;
5129;SDS011;2583;50.946;6.954;2022-12-18T07:19:12;19.60;;;11.93;;
5129;SDS011;2583;50.946;6.954;2022-12-18T07:21:39;23.30;;;13.00;;
5129;SDS011;2583;50.946;6.954;2022-12-18T07:24:05;20.47;;;12.70;;
5129;SDS011;2583;50.946;6.954;2022-12-18T07:26:33;23.40;;;13.07;;
5129;SDS011;2583;50.946;6.954;2022-12-18T07:28:59;24.20;;;13.20;;
5129;SDS011;2583;50.946;6.954;2022-12-18T07:31:26;24.20;;;12.03;;
5129;SDS011;2583;50.946;6.954;2022-12-18T07:33:53;22.10;;;13.30;;
5129;SDS011;2583;50.946;6.954;2022-12-18T07:36:23;18.03;;;13.13;;
5129;SDS011;2583;50.946;6.954;2022-12-18T07:38:50;21.27;;;12.90;;
5129;SDS011;2583;50.946;6.954;2022-12-18T07:41:20;21.83;;;13.00;;
5129;SDS011;2583;50.946;6.954;2022-12-18T07:43:47;24.50;;;13.60;;
5129;SDS011;2583;50.946;6.954;2022-12-18T07:46:14;20.83;;;12.80;;
5129;SDS011;2583;50.946;6.954;2022-12-18T07:48:42;24.50;;;14.57;;
5129;SDS011;2583;50.946;6.954;2022-12-18T07:51:15;22.67;;;14.50;;
5129;SDS011;2583;50.946;6.954;2022-12-18T07:53:43;24.93;;;14.50;;
5129;SDS011;2583;50.946;6.954;2022-12-18T07:56:11;20.27;;;12.80;;
5129;SDS011;2583;50.946;6.954;2022-12-18T07:58:56;22.00;;;13.70;;
5129;SDS011;2583;50.946;6.954;2022-12-18T08:01:23;22.00;;;13.37;;
5129;SDS011;2583;50.946;6.954;2022-12-18T08:03:51;21.03;;;12.70;;
5129;SDS011;2583;50.946;6.954;2022-12-18T08:06:18;21.30;;;13.10;;
5129;SDS011;2583;50.946;6.954;2022-12-18T08:08:53;17.70;;;12.83;;
5129;SDS011;2583;50.946;6.954;2022-12-18T08:11:23;19.73;;;12.87;;
5129;SDS011;2583;50.946;6.954;2022-12-18T08:13:51;21.43;;;12.40;;
5129;SDS011;2583;50.946;6.954;2022-12-18T08:16:18;26.43;;;14.33;;
5129;SDS011;2583;50.946;6.954;2022-12-18T08:18:47;19.27;;;12.43;;
5129;SDS011;2583;50.946;6.954;2022-12-18T08:24:00;23.70;;;13.77;;
5129;SDS011;2583;50.946;6.954;2022-12-18T08:26:28;23.30;;;12.63;;
5129;SDS011;2583;50.946;6.954;2022-12-18T08:28:58;19.73;;;12.77;;
5129;SDS011;2583;50.946;6.954;2022-12-18T08:31:26;20.83;;;13.50;;
5129;SDS011;2583;50.946;6.954;2022-12-18T08:33:54;21.07;;;12.67;;
5129;SDS011;2583;50.946;6.954;2022-12-18T08:36:22;20.77;;;12.87;;
5129;SDS011;2583;50.946;6.954;2022-12-18T08:38:50;24.73;;;13.70;;
5129;SDS011;2583;50.946;6.954;2022-12-18T08:41:17;24.47;;;13.50;;
5129;SDS011;2583;50.946;6.954;2022-12-18T08:43:44;20.30;;;12.40;;
5129;SDS011;2583;50.946;6.954;2022-12-18T08:46:40;20.20;;;13.10;;
5129;SDS011;2583;50.946;6.954;2022-12-18T08:49:10;22.80;;;13.90;;
5129;SDS011;2583;50.946;6.954;2022-12-18T08:51:38;24.40;;;12.90;;
5129;SDS011;2583;50.946;6.954;2022-12-18T08:54:05;22.80;;;12.37;;
5129;SDS011;2583;50.946;6.954;2022-12-18T08:56:34;23.80;;;12.33;;
5129;SDS011;2583;50.946;6.954;2022-12-18T08:59:01;17.90;;;11.80;;
5129;SDS011;2583;50.946;6.954;2022-12-18T09:01:28;21.77;;;12.17;;
5129;SDS011;2583;50.946;6.954;2022-12-18T09:03:55;18.07;;;12.63;;
5129;SDS011;2583;50.946;6.954;2022-12-18T09:06:22;18.73;;;12.40;;
5129;SDS011;2583;50.946;6.954;2022-12-18T09:08:49;21.00;;;12.93;;
5129;SDS011;2583;50.946;6.954;2022-12-18T09:11:34;19.43;;;11.57;;
5129;SDS011;2583;50.946;6.954;2022-12-18T09:14:01;27.37;;;15.57;;
5129;SDS011;2583;50.946;6.954;2022-12-18T09:16:28;20.40;;;12.00;;
5129;SDS011;2583;50.946;6.954;2022-12-18T09:18:58;19.10;;;12.00;;
5129;SDS011;2583;50.946;6.954;2022-12-18T09:21:27;21.20;;;11.57;;
5129;SDS011;2583;50.946;6.954;2022-12-18T09:23:56;18.40;;;11.23;;
5129;SDS011;2583;50.946;6.954;2022-12-18T09:26:24;15.80;;;11.23;;
5129;SDS011;2583;50.946;6.954;2022-12-18T09:28:51;23.57;;;11.43;;
5129;SDS011;2583;50.946;6.954;2022-12-18T09:31:20;12.13;;;10.27;;
5129;SDS011;2583;50.946;6.954;2022-12-18T09:33:47;19.37;;;11.73;;
5129;SDS011;2583;50.946;6.954;2022-12-18T09:36:15;14.70;;;10.90;;
5129;SDS011;2583;50.946;6.954;2022-12-18T09:38:44;20.33;;;12.50;;
5129;SDS011;2583;50.946;6.954;2022-12-18T09:41:26;21.00;;;12.10;;
5129;SDS011;2583;50.946;6.954;2022-12-18T09:43:57;18.33;;;11.70;;
5129;SDS011;2583;50.946;6.954;2022-12-18T09:46:30;16.13;;;11.13;;
5129;SDS011;2583;50.946;6.954;2022-12-18T09:49:01;15.83;;;11.27;;
5129;SDS011;2583;50.946;6.954;2022-12-18T09:51:34;15.53;;;12.20;;
5129;SDS011;2583;50.946;6.954;2022-12-18T09:54:18;20.40;;;12.63;;
5129;SDS011;2583;50.946;6.954;2022-12-18T09:56:58;16.90;;;12.00;;
5129;SDS011;2583;50.946;6.954;2022-12-18T09:59:30;17.57;;;12.30;;
5129;SDS011;2583;50.946;6.954;2022-12-18T10:02:16;19.40;;;12.13;;
5129;SDS011;2583;50.946;6.954;2022-12-18T10:07:35;18.30;;;12.23;;
5129;SDS011;2583;50.946;6.954;2022-12-18T10:12:44;17.77;;;10.07;;
5129;SDS011;2583;50.946;6.954;2022-12-18T10:20:52;19.30;;;11.80;;
5129;SDS011;2583;50.946;6.954;2022-12-18T10:26:13;17.03;;;11.77;;
5129;SDS011;2583;50.946;6.954;2022-12-18T10:28:41;16.77;;;10.80;;
5129;SDS011;2583;50.946;6.954;2022-12-18T10:31:14;15.80;;;11.47;;
5129;SDS011;2583;50.946;6.954;2022-12-18T10:33:44;18.70;;;11.63;;
5129;SDS011;2583;50.946;6.954;2022-12-18T10:36:11;13.50;;;11.63;;
5129;SDS011;2583;50.946;6.954;2022-12-18T10:38:38;14.30;;;10.33;;
5129;SDS011;2583;50.946;6.954;2022-12-18T10:46:46;17.70;;;10.50;;
5129;SDS011;2583;50.946;6.954;2022-12-18T10:49:33;15.90;;;10.90;;
5129;SDS011;2583;50.946;6.954;2022-12-18T10:52:15;21.03;;;12.20;;
5129;SDS011;2583;50.946;6.954;2022-12-18T10:54:51;17.20;;;12.17;;
5129;SDS011;2583;50.946;6.954;2022-12-18T10:59:54;15.53;;;11.23;;
5129;SDS011;2583;50.946;6.954;2022-12-18T11:05:03;15.87;;;10.30;;
5129;SDS011;2583;50.946;6.954;2022-12-18T11:07:49;18.10;;;11.30;;
5129;SDS011;2583;50.946;6.954;2022-12-18T11:10:17;17.07;;;11.27;;
5129;SDS011;2583;50.946;6.954;2022-12-18T11:12:45;17.80;;;10.83;;
5129;SDS011;2583;50.946;6.954;2022-12-18T11:15:15;17.70;;;10.83;;
5129;SDS011;2583;50.946;6.954;2022-12-18T11:17:48;20.30;;;12.90;;
5129;SDS011;2583;50.946;6.954;2022-12-18T11:20:32;22.70;;;11.03;;
5129;SDS011;2583;50.946;6.954;2022-12-18T11:23:03;11.80;;;10.17;;
5129;SDS011;2583;50.946;6.954;2022-12-18T11:25:32;16.70;;;11.73;;
5129;SDS011;2583;50.946;6.954;2022-12-18T11:28:02;15.93;;;11.50;;
5129;SDS011;2583;50.946;6.954;2022-12-18T11:30:48;17.97;;;11.27;;
5129;SDS011;2583;50.946;6.954;2022-12-18T11:33:17;16.50;;;11.07;;
5129;SDS011;2583;50.946;6.954;2022-12-18T11:35:55;14.73;;;10.90;;
5129;SDS011;2583;50.946;6.954;2022-12-18T11:38:30;18.00;;;10.73;;
5129;SDS011;2583;50.946;6.954;2022-12-18T11:41:07;16.70;;;11.50;;
5129;SDS011;2583;50.946;6.954;2022-12-18T11:44:13;17.23;;;11.13;;
5129;SDS011;2583;50.946;6.954;2022-12-18T11:46:47;17.43;;;12.37;;
5129;SDS011;2583;50.946;6.954;2022-12-18T11:49:27;17.80;;;11.57;;
5129;SDS011;2583;50.946;6.954;2022-12-18T11:54:44;17.83;;;11.20;;
5129;SDS011;2583;50.946;6.954;2022-12-18T12:02:33;18.13;;;11.97;;
5129;SDS011;2583;50.946;6.954;2022-12-18T12:05:25;19.23;;;13.23;;
5129;SDS011;2583;50.946;6.954;2022-12-18T12:08:07;17.10;;;11.40;;
5129;SDS011;2583;50.946;6.954;2022-12-18T12:11:02;24.27;;;14.63;;
5129;SDS011;2583;50.946;6.954;2022-12-18T12:24:48;19.70;;;11.60;;
5129;SDS011;2583;50.946;6.954;2022-12-18T12:32:58;17.83;;;12.10;;
5129;SDS011;2583;50.946;6.954;2022-12-18T12:35:49;21.63;;;12.53;;
5129;SDS011;2583;50.946;6.954;2022-12-18T12:38:28;20.00;;;12.37;;
5129;SDS011;2583;50.946;6.954;2022-12-18T12:41:04;21.33;;;13.83;;
5129;SDS011;2583;50.946;6.954;2022-12-18T12:43:53;23.13;;;13.17;;
5129;SDS011;2583;50.946;6.954;2022-12-18T12:46:24;21.97;;;13.27;;
5129;SDS011;2583;50.946;6.954;2022-12-18T12:48:56;22.63;;;13.60;;
5129;SDS011;2583;50.946;6.954;2022-12-18T12:51:28;24.93;;;14.20;;
5129;SDS011;2583;50.946;6.954;2022-12-18T12:53:58;20.87;;;12.97;;
5129;SDS011;2583;50.946;6.954;2022-12-18T12:57:16;19.27;;;12.93;;
5129;SDS011;2583;50.946;6.954;2022-12-18T13:08:07;26.30;;;14.33;;
5129;SDS011;2583;50.946;6.954;2022-12-18T13:10:39;28.43;;;13.83;;
5129;SDS011;2583;50.946;6.954;2022-12-18T13:13:11;22.57;;;13.90;;
5129;SDS011;2583;50.946;6.954;2022-12-18T13:16:07;18.73;;;12.17;;
5129;SDS011;2583;50.946;6.954;2022-12-18T13:18:34;23.80;;;13.40;;
5129;SDS011;2583;50.946;6.954;2022-12-18T13:21:03;22.27;;;13.20;;
5129;SDS011;2583;50.946;6.954;2022-12-18T13:23:53;25.80;;;13.50;;
5129;SDS011;2583;50.946;6.954;2022-12-18T13:28:54;23.00;;;13.37;;
5129;SDS011;2583;50.946;6.954;2022-12-18T13:40:24;22.63;;;14.00;;
5129;SDS011;2583;50.946;6.954;2022-12-18T13:48:27;21.57;;;13.83;;
5129;SDS011;2583;50.946;6.954;2022-12-18T13:51:01;25.40;;;16.37;;
5129;SDS011;2583;50.946;6.954;2022-12-18T13:56:17;21.60;;;13.83;;
5129;SDS011;2583;50.946;6.954;2022-12-18T13:59:03;24.40;;;15.30;;
5129;SDS011;2583;50.946;6.954;2022-12-18T14:01:51;23.63;;;13.87;;
5129;SDS011;2583;50.946;6.954;2022-12-18T14:10:03;23.60;;;13.40;;
5129;SDS011;2583;50.946;6.954;2022-12-18T14:12:50;24.90;;;16.00;;
5129;SDS011;2583;50.946;6.954;2022-12-18T14:15:31;23.67;;;14.47;;
5129;SDS011;2583;50.946;6.954;2022-12-18T14:18:09;22.57;;;14.03;;
5129;SDS011;2583;50.946;6.954;2022-12-18T14:20:50;23.70;;;14.43;;
5129;SDS011;2583;50.946;6.954;2022-12-18T14:23:26;28.03;;;15.10;;
5129;SDS011;2583;50.946;6.954;2022-12-18T14:28:47;21.83;;;14.70;;
5129;SDS011;2583;50.946;6.954;2022-12-18T14:31:19;23.20;;;16.33;;
5129;SDS011;2583;50.946;6.954;2022-12-18T14:33:48;22.43;;;14.70;;
5129;SDS011;2583;50.946;6.954;2022-12-18T14:36:17;31.60;;;15.40;;
5129;SDS011;2583;50.946;6.954;2022-12-18T14:38:56;22.57;;;14.17;;
5129;SDS011;2583;50.946;6.954;2022-12-18T14:41:24;22.10;;;15.30;;
5129;SDS011;2583;50.946;6.954;2022-12-18T14:43:52;23.20;;;15.10;;
5129;SDS011;2583;50.946;6.954;2022-12-18T14:46:30;25.73;;;15.40;;
5129;SDS011;2583;50.946;6.954;2022-12-18T14:49:03;27.87;;;16.00;;
5129;SDS011;2583;50.946;6.954;2022-12-18T14:51:47;25.77;;;15.80;;
5129;SDS011;2583;50.946;6.954;2022-12-18T14:54:20;26.60;;;15.57;;
5129;SDS011;2583;50.946;6.954;2022-12-18T14:59:24;23.93;;;14.97;;
5129;SDS011;2583;50.946;6.954;2022-12-18T15:02:09;23.87;;;15.50;;
5129;SDS011;2583;50.946;6.954;2022-12-18T15:04:38;25.00;;;16.77;;
5129;SDS011;2583;50.946;6.954;2022-12-18T15:07:17;33.00;;;16.40;;
5129;SDS011;2583;50.946;6.954;2022-12-18T15:18:02;20.10;;;13.40;;
5129;SDS011;2583;50.946;6.954;2022-12-18T15:20:30;25.33;;;16.87;;
5129;SDS011;2583;50.946;6.954;2022-12-18T15:22:58;26.27;;;17.10;;
5129;SDS011;2583;50.946;6.954;2022-12-18T15:25:32;25.00;;;16.40;;
5129;SDS011;2583;50.946;6.954;2022-12-18T15:28:16;27.17;;;16.10;;
5129;SDS011;2583;50.946;6.954;2022-12-18T15:36:19;55.90;;;29.90;;
5129;SDS011;2583;50.946;6.954;2022-12-18T15:38:52;29.80;;;17.10;;
5129;SDS011;2583;50.946;6.954;2022-12-18T15:41:33;23.30;;;15.90;;
5129;SDS011;2583;50.946;6.954;2022-12-18T15:44:02;29.00;;;16.10;;
5129;SDS011;2583;50.946;6.954;2022-12-18T15:46:41;29.00;;;16.47;;
5129;SDS011;2583;50.946;6.954;2022-12-18T15:49:08;25.27;;;15.13;;
5129;SDS011;2583;50.946;6.954;2022-12-18T15:51:36;26.63;;;16.00;;
5129;SDS011;2583;50.946;6.954;2022-12-18T15:54:04;31.70;;;17.57;;
5129;SDS011;2583;50.946;6.954;2022-12-18T15:56:35;27.50;;;16.67;;
5129;SDS011;2583;50.946;6.954;2022-12-18T15:59:22;28.07;;;17.40;;
5129;SDS011;2583;50.946;6.954;2022-12-18T16:01:50;27.43;;;17.13;;
5129;SDS011;2583;50.946;6.954;2022-12-18T16:04:19;32.07;;;18.83;;
5129;SDS011;2583;50.946;6.954;2022-12-18T16:06:48;27.77;;;16.30;;
5129;SDS011;2583;50.946;6.954;2022-12-18T16:09:36;28.43;;;16.77;;
5129;SDS011;2583;50.946;6.954;2022-12-18T16:12:03;28.10;;;18.63;;
5129;SDS011;2583;50.946;6.954;2022-12-18T16:14:31;32.17;;;20.07;;
5129;SDS011;2583;50.946;6.954;2022-12-18T16:17:00;33.90;;;16.50;;
5129;SDS011;2583;50.946;6.954;2022-12-18T16:19:28;31.33;;;17.93;;
5129;SDS011;2583;50.946;6.954;2022-12-18T16:21:56;29.37;;;17.77;;
5129;SDS011;2583;50.946;6.954;2022-12-18T16:24:25;29.23;;;17.80;;
5129;SDS011;2583;50.946;6.954;2022-12-18T16:26:55;31.33;;;18.70;;
5129;SDS011;2583;50.946;6.954;2022-12-18T16:29:26;30.27;;;17.63;;
5129;SDS011;2583;50.946;6.954;2022-12-18T16:31:55;27.10;;;17.43;;
5129;SDS011;2583;50.946;6.954;2022-12-18T16:34:27;31.10;;;17.40;;
5129;SDS011;2583;50.946;6.954;2022-12-18T16:37:02;32.57;;;18.10;;
5129;SDS011;2583;50.946;6.954;2022-12-18T16:39:32;35.60;;;18.37;;
5129;SDS011;2583;50.946;6.954;2022-12-18T16:42:01;43.23;;;22.30;;
5129;SDS011;2583;50.946;6.954;2022-12-18T16:44:31;28.03;;;16.17;;
5129;SDS011;2583;50.946;6.954;2022-12-18T16:47:02;30.17;;;18.33;;
5129;SDS011;2583;50.946;6.954;2022-12-18T16:49:30;31.43;;;18.13;;
5129;SDS011;2583;50.946;6.954;2022-12-18T16:51:57;36.90;;;19.17;;
5129;SDS011;2583;50.946;6.954;2022-12-18T16:54:24;31.90;;;18.07;;
5129;SDS011;2583;50.946;6.954;2022-12-18T16:56:51;31.43;;;17.60;;
5129;SDS011;2583;50.946;6.954;2022-12-18T16:59:17;34.80;;;21.50;;
5129;SDS011;2583;50.946;6.954;2022-12-18T17:01:45;34.83;;;19.23;;
5129;SDS011;2583;50.946;6.954;2022-12-18T17:04:12;28.80;;;18.50;;
5129;SDS011;2583;50.946;6.954;2022-12-18T17:06:41;35.10;;;19.20;;
5129;SDS011;2583;50.946;6.954;2022-12-18T17:09:13;32.93;;;17.57;;
5129;SDS011;2583;50.946;6.954;2022-12-18T17:11:41;33.60;;;18.43;;
5129;SDS011;2583;50.946;6.954;2022-12-18T17:14:13;31.10;;;18.07;;
5129;SDS011;2583;50.946;6.954;2022-12-18T17:16:44;29.83;;;18.37;;
5129;SDS011;2583;50.946;6.954;2022-12-18T17:19:12;32.50;;;18.90;;
5129;SDS011;2583;50.946;6.954;2022-12-18T17:21:43;32.17;;;18.80;;
5129;SDS011;2583;50.946;6.954;2022-12-18T17:24:12;33.13;;;19.87;;
5129;SDS011;2583;50.946;6.954;2022-12-18T17:26:39;33.50;;;18.30;;
5129;SDS011;2583;50.946;6.954;2022-12-18T17:29:05;30.97;;;19.23;;
5129;SDS011;2583;50.946;6.954;2022-12-18T17:31:33;35.40;;;19.80;;
5129;SDS011;2583;50.946;6.954;2022-12-18T17:34:00;33.27;;;20.23;;